Detall de PIREP

Printer-friendly versionPDF version

[2012/02/24 08:47:00]
Flight IATA:CT2102
Pilot Number:041
Company ICAO:CAT
Aircraft Type:F100/F
PAX:61
Aircraft Registration:DA
Departing Airport: LEVC
Destination Airport: LEBZ
Alternate Airport:LEMG
Online: VATSIM
Route:CLS UN733 CJN UN975 CCS
Flight Level:F270
No Slew and time accel
No pause
Crash detect
Detect pilot in Cockpit between each 30 and 45 minutes
08:47 Zero fuel Weight: 79433 Lbs, Fuel Weight: 12411 Lbs
08:47 VATSIM:LEVC 240830Z VRB02KT CAVOK 09/M05 Q1028 NOSIG
08:47 VATSIM:LEBZ 240800Z 00000KT CAVOK M01/M08 Q1028
08:47 VOICE CATALONIAN
08:57 Parking Brakes off
09:01 Take-off
09:01 Take off Weight: 91494 Lbs
09:01 Wind: 263º @ 002 Knots Heading: 295º
09:01 POS N39º 29´ 27´´ W000º 29´ 10´´
09:01 Gear Up: 162 Knots
09:01 Flaps:2 at 162 Knots
09:01 Flaps:1 at 164 Knots
09:01 Flaps:0 at 156 Knots
09:16 Wind:087º@054 Knots Heading: 303º Ground Speed:423 Knots Altitude 23727 ft
09:19 TOC
09:19 Fuel Weight: 9677 Lb
09:31 Wind:092º@077 Knots Heading: 251º Ground Speed: 473 Knots Altitude 27506 ft
09:40 TOD
09:40 Fuel Weight: 7896 Lb
09:46 Wind:077º@025 Knots Heading: 174º Ground Speed: 375 Knots Altitude 14015 ft
09:51 Flaps:1 at 240 Knots
09:58 Flaps:2 at 218 Knots
10:01 Wind:083º@013 Knots Heading: 091º Ground Speed: 203 Knots Altitude 3543 ft
10:07 Flaps:3 at 189 Knots
10:08 Gear Down: 183 Knots
10:08 Flaps:4 at 181 Knots
10:11 TouchDown:Rate -136 ft/min Speed: 116 Knots
10:12 VATSIM:LEBZ 240900Z VRB01KT CAVOK 04/M05 Q1028
10:12 Land
10:12 Wind:081º@001 Knots
10:12 Heading: 305º
10:12 Flight Duration: 01:11
10:12 Landing Weight: 85265 Lbs
10:12 POS N38º 53´ 37´´ W006º 49´ 32´´
10:15 Parking brakes on
10:15 Block to Block Duration: 01:18
10:15 Final Fuel: 5672 Lbls
10:15 Spent Fuel: 6739 Lbls
10:15 Flight Length: 403 NM
10:15 TOD Land Length: 134 NM

Exportar CSV

Powered by Drupal - Modified by Danger4k